YNBR

Details ICAO YNBR (NAA)
Name Narrabri
Region Australia
Timezone Australia/Sydney (UTC+11.0)
Plans Departing 0
Arriving 0
Stats Elevation 788 ft / 240 m (AMSL)
Location -30.317415° 149.828305°
Runways 2
Magnetic Variation 10.892° E
Sunrise 2017-12-13 18:54:11 UTC / 2017-12-14 05:54:11 Local
Sunset 2017-12-14 08:58:58 UTC / 2017-12-14 19:58:58 Local
Advertisement - Login to hide

Runways

ID Width Length Bearing (true) Bearing (mag) Surface Threshold Offset Overrun Length
09 302 ft / 92 m 4,385 ft / 1,337 m 95.44° 84.55° Grass 0 ft / 0 m 0 ft / 0 m
18 98 ft / 30 m 5,009 ft / 1,527 m 13.10° 2.21° Asphalt 0 ft / 0 m 0 ft / 0 m
27 302 ft / 92 m 4,385 ft / 1,337 m 275.44° 264.55° Grass 0 ft / 0 m 0 ft / 0 m
36 98 ft / 30 m 5,009 ft / 1,527 m 193.10° 182.21° Asphalt 0 ft / 0 m 0 ft / 0 m

Map

Weather


0- 5 10 15 20 25 30 35+ Temperature / ° C

Clouds and Precipitation
Forecast for 2017-12-14 00:00 UTC. Updated 2 hours ago

Ground ~20,000 ft ~40,000 ft Winds

METAR

YNBR 132000Z AUTO 02018KT 9999 // NCD 26/13 Q1012

TAF

Not found

Frequencies

Unicom 126.70 MHz CTAF
Warning: Do not use this data for real-world aviation or navigation. No guarantee of current accuracy is given.